Saint Charles, South Dakota
Current Conditions -  °F | °C
As of 5:53 AM on Wednesday 28 Jan 2015 (Local Time) from KICR Reporting Station
Clear Clear  
Wind Chill: 51°   Ceiling: Unl
Heat Index: 51°   Visibility: 10mi
Dew Point: 30°   Wind: 14mph
Humidity: 44%   Direction: 230°SW
Pressure: 29.72"   Gusts: NA
Location:  43.09°N, 99.1°W
Report Text: KICR 281153Z AUTO 23012KT 10SM CLR 11/M01 A2972 RMK AO2 SLP065 T01061011 10144 20050 55008
Loading
Personal Weather Stations






























Interactive Weather Map New forecast layout! Learn more

10-Day Weather Forecast

Advertisements
Track Severe Weather on mobile